createdAt,value
2022-10-09T00:01:21.401Z,99843.53
2022-10-09T00:03:50.462Z,99850.47
2022-10-09T00:06:22.974Z,99854.50
2022-10-09T00:08:50.543Z,99860.19
2022-10-09T00:11:23.301Z,99857.34
2022-10-09T00:13:50.683Z,99855.13
2022-10-09T00:16:18.688Z,99869.28
2022-10-09T00:18:46.336Z,99841.09
2022-10-09T00:21:30.694Z,99865.75
2022-10-09T00:24:00.142Z,99877.13
2022-10-09T00:26:27.702Z,99877.72
2022-10-09T00:28:55.125Z,99871.97
2022-10-09T00:31:22.253Z,99872.00
2022-10-09T00:33:49.088Z,99877.09
2022-10-09T00:36:20.204Z,99879.66
2022-10-09T00:38:47.358Z,99876.25
2022-10-09T00:41:30.103Z,99872.47
2022-10-09T00:44:04.947Z,99868.22
2022-10-09T00:47:01.212Z,99875.69
2022-10-09T00:49:32.287Z,99867.56
2022-10-09T00:52:03.340Z,99870.00
2022-10-09T00:54:34.041Z,99871.72
2022-10-09T00:57:00.923Z,99871.81
2022-10-09T00:59:28.047Z,99878.63
2022-10-09T01:01:54.865Z,99854.31
2022-10-09T01:04:21.682Z,99844.03
2022-10-09T01:07:12.276Z,99856.94
2022-10-09T01:09:41.822Z,99879.06
2022-10-09T01:12:17.356Z,99872.44
2022-10-09T01:14:56.951Z,99875.13
2022-10-09T01:17:41.482Z,99864.19
2022-10-09T01:20:14.252Z,99879.63
2022-10-09T01:22:59.521Z,99875.84
2022-10-09T01:25:36.333Z,99884.78
2022-10-09T01:28:06.623Z,99879.91
2022-10-09T01:30:35.018Z,99864.38
2022-10-09T01:33:02.401Z,99878.41
2022-10-09T01:35:30.672Z,99877.03
2022-10-09T01:37:58.122Z,99886.78
2022-10-09T01:40:26.792Z,99881.41
2022-10-09T01:42:53.821Z,99893.03
2022-10-09T01:45:20.847Z,99880.69
2022-10-09T01:47:47.618Z,99903.69
2022-10-09T01:50:29.688Z,99902.13
2022-10-09T01:53:04.084Z,99890.78
2022-10-09T01:55:41.813Z,99891.63
2022-10-09T01:58:20.688Z,99907.19
2022-10-09T02:00:54.743Z,99893.75
2022-10-09T02:03:24.529Z,99906.50
2022-10-09T02:05:52.941Z,99912.03
2022-10-09T02:08:22.325Z,99906.78
2022-10-09T02:10:53.758Z,99893.63
2022-10-09T02:13:21.065Z,99912.59
2022-10-09T02:15:52.779Z,99916.72
2022-10-09T02:18:26.983Z,99920.09
2022-10-09T02:21:00.073Z,99923.94
2022-10-09T02:23:28.714Z,99885.22
2022-10-09T02:25:55.517Z,99911.19
2022-10-09T02:28:22.615Z,99926.75
2022-10-09T02:31:05.962Z,99928.44
2022-10-09T02:33:34.403Z,99935.66
2022-10-09T02:36:01.962Z,99932.25
2022-10-09T02:38:29.368Z,99934.50
2022-10-09T02:41:00.494Z,99926.53
2022-10-09T02:43:28.100Z,99926.78
2022-10-09T02:45:55.005Z,99944.19
2022-10-09T02:48:21.723Z,99939.06
2022-10-09T02:50:48.463Z,99933.22
2022-10-09T02:53:15.176Z,99932.97
2022-10-09T02:55:41.982Z,99932.06
2022-10-09T02:58:08.728Z,99950.22
2022-10-09T03:00:35.407Z,99945.91
2022-10-09T03:03:02.128Z,99933.53
2022-10-09T03:05:28.893Z,99939.59
2022-10-09T03:07:55.578Z,99927.09
2022-10-09T03:10:22.428Z,99947.34
2022-10-09T03:12:49.389Z,99953.06
2022-10-09T03:15:16.897Z,99953.84
2022-10-09T03:17:43.592Z,99953.53
2022-10-09T03:20:10.522Z,99950.06
2022-10-09T03:22:37.221Z,99945.97
2022-10-09T03:25:04.163Z,99936.88
2022-10-09T03:27:31.042Z,99953.88
2022-10-09T03:29:58.782Z,99942.84
2022-10-09T03:32:25.822Z,99951.78
2022-10-09T03:34:52.811Z,99957.16
2022-10-09T03:37:19.569Z,99960.09
2022-10-09T03:39:46.508Z,99952.84
2022-10-09T03:42:13.562Z,99957.16
2022-10-09T03:44:40.262Z,99961.78
2022-10-09T03:47:07.042Z,99977.13
2022-10-09T03:49:33.742Z,99941.50
2022-10-09T03:52:00.445Z,99970.22
2022-10-09T03:54:27.143Z,99977.16
2022-10-09T03:56:53.851Z,99979.59
2022-10-09T03:59:20.506Z,99963.56
2022-10-09T04:01:47.182Z,99965.50
2022-10-09T04:04:13.972Z,99990.56
2022-10-09T04:06:40.675Z,99982.03
2022-10-09T04:09:07.392Z,99961.13
2022-10-09T04:11:34.292Z,99986.06
2022-10-09T04:14:01.239Z,99981.44
2022-10-09T04:16:28.035Z,99994.72
2022-10-09T04:18:54.704Z,99978.38
2022-10-09T04:21:21.452Z,99988.00
2022-10-09T04:23:48.143Z,99992.41
2022-10-09T04:26:14.798Z,99983.19
2022-10-09T04:28:41.597Z,99956.13
2022-10-09T04:31:08.551Z,99985.50
2022-10-09T04:33:35.353Z,100004.03
2022-10-09T04:36:02.053Z,100001.22
2022-10-09T04:38:31.079Z,100005.25
2022-10-09T04:40:59.004Z,100009.63
2022-10-09T04:43:26.152Z,99999.63
2022-10-09T04:45:53.072Z,99994.38
2022-10-09T04:48:20.636Z,100002.44
2022-10-09T04:50:47.401Z,100008.66
2022-10-09T04:53:14.984Z,100013.91
2022-10-09T04:55:45.039Z,100003.16
2022-10-09T04:58:13.742Z,100007.44
2022-10-09T05:00:45.835Z,99998.53
2022-10-09T05:03:13.091Z,99991.09
2022-10-09T05:05:40.031Z,100000.22
2022-10-09T05:08:06.808Z,100001.22
2022-10-09T05:10:33.531Z,100002.31
2022-10-09T05:13:00.604Z,99998.44
2022-10-09T05:15:27.543Z,100007.06
2022-10-09T05:17:54.321Z,100003.97
2022-10-09T05:20:21.037Z,100001.50
2022-10-09T05:22:48.349Z,100009.81
2022-10-09T05:25:15.663Z,100008.22
2022-10-09T05:27:42.322Z,99998.91
2022-10-09T05:30:09.777Z,100013.41
2022-10-09T05:32:36.765Z,100017.72
2022-10-09T05:35:04.540Z,100017.75
2022-10-09T05:37:31.384Z,100027.34
2022-10-09T05:39:58.101Z,100026.56
2022-10-09T05:42:24.882Z,100004.22
2022-10-09T05:44:51.612Z,100040.78
2022-10-09T05:47:19.812Z,100019.91
2022-10-09T05:49:46.875Z,100044.78
2022-10-09T05:52:13.750Z,100021.59
2022-10-09T05:54:42.041Z,100048.44
2022-10-09T05:57:10.022Z,100034.66
2022-10-09T05:59:36.756Z,100050.47
2022-10-09T06:02:04.031Z,100054.25
2022-10-09T06:04:30.768Z,100045.81
2022-10-09T06:06:57.542Z,100051.38
2022-10-09T06:09:25.873Z,100064.09
2022-10-09T06:11:54.114Z,100052.97
2022-10-09T06:14:22.341Z,100068.59
2022-10-09T06:16:49.940Z,100060.34
2022-10-09T06:19:18.406Z,100077.25
2022-10-09T06:21:45.602Z,100062.50
2022-10-09T06:24:32.593Z,100064.31
2022-10-09T06:26:59.350Z,100062.72
2022-10-09T06:29:26.670Z,100057.09
2022-10-09T06:31:53.592Z,100076.41
2022-10-09T06:34:20.412Z,100081.97
2022-10-09T06:36:47.128Z,100080.38
2022-10-09T06:39:13.910Z,100077.06
2022-10-09T06:41:40.793Z,100090.75
2022-10-09T06:44:15.315Z,100098.84
2022-10-09T06:46:45.469Z,100095.53
2022-10-09T06:49:12.706Z,100090.75
2022-10-09T06:51:39.898Z,100093.84
2022-10-09T06:54:12.920Z,100089.56
2022-10-09T06:56:39.708Z,100100.41
2022-10-09T06:59:07.853Z,100102.00
2022-10-09T07:01:35.271Z,100099.38
2022-10-09T07:04:07.712Z,100098.53
2022-10-09T07:06:38.695Z,100110.16
2022-10-09T07:09:08.132Z,100104.06
2022-10-09T07:11:37.608Z,100117.84
2022-10-09T07:14:06.499Z,100116.41
2022-10-09T07:16:36.077Z,100108.56
2022-10-09T07:19:07.558Z,100101.66
2022-10-09T07:21:35.205Z,100094.81
2022-10-09T07:24:03.136Z,100116.66
2022-10-09T07:26:32.005Z,100123.16
2022-10-09T07:28:59.216Z,100115.66
2022-10-09T07:31:26.489Z,100119.44
2022-10-09T07:33:55.548Z,100118.84
2022-10-09T07:36:22.556Z,100117.63
2022-10-09T07:38:51.709Z,100109.81
2022-10-09T07:41:19.863Z,100120.19
2022-10-09T07:43:46.700Z,100121.66
2022-10-09T07:46:16.776Z,100124.28
2022-10-09T07:48:44.126Z,100126.19
2022-10-09T07:51:17.906Z,100125.56
2022-10-09T07:53:45.922Z,100127.03
2022-10-09T07:56:18.293Z,100112.34
2022-10-09T07:58:52.302Z,100122.16
2022-10-09T08:01:20.969Z,100112.50
2022-10-09T08:03:48.976Z,100112.97
2022-10-09T08:06:16.232Z,100095.25
2022-10-09T08:08:43.866Z,100106.72
2022-10-09T08:11:12.641Z,100096.63
2022-10-09T08:13:40.129Z,100103.31
2022-10-09T08:16:07.603Z,100084.09
2022-10-09T08:18:35.556Z,100109.53
2022-10-09T08:21:08.282Z,100111.00
2022-10-09T08:23:35.414Z,100107.75
2022-10-09T08:26:02.208Z,100114.31
2022-10-09T08:28:29.041Z,100114.03
2022-10-09T08:30:55.886Z,100108.25
2022-10-09T08:33:25.086Z,100119.69
2022-10-09T08:35:53.252Z,100113.03
2022-10-09T08:38:45.687Z,100111.22
2022-10-09T08:41:28.987Z,100117.34
2022-10-09T08:44:13.219Z,100102.78
2022-10-09T08:47:11.868Z,100114.31
2022-10-09T08:49:43.041Z,100119.59
2022-10-09T08:52:24.564Z,100113.16
2022-10-09T08:54:54.091Z,100103.78
2022-10-09T08:57:22.047Z,100081.31
2022-10-09T08:59:48.872Z,100108.50
2022-10-09T09:02:32.457Z,100110.41
2022-10-09T09:05:18.852Z,100110.19
2022-10-09T09:08:02.854Z,100104.75
2022-10-09T09:10:41.557Z,100108.97
2022-10-09T09:13:31.101Z,100107.19
2022-10-09T09:16:23.194Z,100106.59
2022-10-09T09:19:13.258Z,100116.50
2022-10-09T09:21:53.840Z,100112.38
2022-10-09T09:24:31.742Z,100114.78
2022-10-09T09:27:03.815Z,100102.66
2022-10-09T09:29:35.894Z,100111.50
2022-10-09T09:32:02.972Z,100108.75
2022-10-09T09:34:39.123Z,100107.38
2022-10-09T09:37:05.950Z,100099.63
2022-10-09T09:40:24.318Z,100096.56
2022-10-09T09:42:21.990Z,100106.53
2022-10-09T09:45:00.350Z,100093.59
2022-10-09T09:47:34.607Z,100093.41
2022-10-09T09:50:03.600Z,100086.25
2022-10-09T09:52:35.944Z,100089.81
2022-10-09T09:55:04.364Z,100084.31
2022-10-09T09:57:39.739Z,100088.06
2022-10-09T10:00:08.802Z,100084.06
2022-10-09T10:02:35.523Z,100073.03
2022-10-09T10:05:15.778Z,100081.78
2022-10-09T10:07:42.498Z,100089.66
2022-10-09T10:10:25.015Z,100086.28
2022-10-09T10:12:52.766Z,100077.88
2022-10-09T10:15:29.503Z,100056.94
2022-10-09T10:18:03.252Z,100069.03
2022-10-09T10:20:32.996Z,100061.81
2022-10-09T10:23:00.798Z,100053.66
2022-10-09T10:25:34.183Z,100039.50
2022-10-09T10:28:08.681Z,100038.56
2022-10-09T10:30:37.894Z,100036.31
2022-10-09T10:33:24.999Z,100038.41
2022-10-09T10:35:54.145Z,100053.69
2022-10-09T10:38:43.744Z,100046.84
2022-10-09T10:41:19.212Z,100043.41
2022-10-09T10:43:51.509Z,100037.69
2022-10-09T10:46:26.087Z,100014.09
2022-10-09T10:48:53.524Z,100031.66
2022-10-09T10:51:35.298Z,100038.00
2022-10-09T10:54:32.302Z,100035.31
2022-10-09T10:57:15.107Z,100021.47
2022-10-09T10:59:57.216Z,99993.84
2022-10-09T11:02:47.708Z,100008.56
2022-10-09T11:05:23.634Z,100015.88
2022-10-09T11:08:12.202Z,100012.63
2022-10-09T11:10:50.541Z,100013.88
2022-10-09T11:13:20.265Z,100013.50
2022-10-09T11:15:46.873Z,100008.91
2022-10-09T11:18:41.148Z,99999.41
2022-10-09T11:21:34.401Z,100007.22
2022-10-09T11:24:27.337Z,100001.13
2022-10-09T11:27:21.075Z,99992.69
2022-10-09T11:29:58.177Z,99984.63
2022-10-09T11:32:36.737Z,99967.56
2022-10-09T11:35:12.993Z,99957.59
2022-10-09T11:37:43.352Z,99963.69
2022-10-09T11:40:24.789Z,99950.88
2022-10-09T11:43:35.563Z,99942.06
2022-10-09T11:46:16.092Z,99949.00
2022-10-09T11:49:08.113Z,99947.63
2022-10-09T11:51:44.044Z,99939.72
2022-10-09T11:54:16.495Z,99934.28
2022-10-09T11:56:56.273Z,99922.25
2022-10-09T11:59:30.699Z,99919.19
2022-10-09T12:02:00.347Z,99928.50
2022-10-09T12:04:53.942Z,99918.00
2022-10-09T12:07:36.906Z,99923.75
2022-10-09T12:10:21.079Z,99909.22
2022-10-09T12:13:00.457Z,99902.13
2022-10-09T12:15:36.582Z,99894.66
2022-10-09T12:18:16.913Z,99881.44
2022-10-09T12:20:48.093Z,99882.63
2022-10-09T12:23:27.468Z,99887.03
2022-10-09T12:25:56.401Z,99844.81
2022-10-09T12:28:39.718Z,99872.66
2022-10-09T12:31:18.795Z,99879.41
2022-10-09T12:33:51.884Z,99875.34
2022-10-09T12:36:26.877Z,99879.44
2022-10-09T12:38:54.276Z,99877.53
2022-10-09T12:41:29.345Z,99860.28
2022-10-09T12:43:58.592Z,99844.91
2022-10-09T12:46:43.743Z,99848.09
2022-10-09T12:49:24.993Z,99843.38
2022-10-09T12:51:56.375Z,99844.22
2022-10-09T12:54:25.334Z,99832.72
2022-10-09T12:56:54.888Z,99818.47
2022-10-09T12:59:24.893Z,99810.19
2022-10-09T13:01:57.433Z,99788.16
2022-10-09T13:04:34.393Z,99807.81
2022-10-09T13:07:06.779Z,99815.56
2022-10-09T13:09:39.953Z,99807.97
2022-10-09T13:12:14.499Z,99803.06
2022-10-09T13:14:46.908Z,99794.91
2022-10-09T13:17:34.016Z,99798.97
2022-10-09T13:20:22.414Z,99797.44
2022-10-09T13:23:03.063Z,99802.03
2022-10-09T13:25:38.106Z,99795.09
2022-10-09T13:28:05.787Z,99799.13
2022-10-09T13:30:33.279Z,99800.59
2022-10-09T13:33:00.063Z,99782.41
2022-10-09T13:35:26.904Z,99784.69
2022-10-09T13:37:53.741Z,99775.94
2022-10-09T13:40:22.105Z,99787.34
2022-10-09T13:42:59.942Z,99785.81
2022-10-09T13:45:26.902Z,99784.31
2022-10-09T13:47:53.692Z,99785.16
2022-10-09T13:50:20.506Z,99766.34
2022-10-09T13:52:47.428Z,99763.53
2022-10-09T13:55:14.982Z,99756.94
2022-10-09T13:57:41.824Z,99769.53
2022-10-09T14:00:09.198Z,99766.00
2022-10-09T14:02:36.022Z,99761.84
2022-10-09T14:05:02.774Z,99758.28
2022-10-09T14:07:30.325Z,99771.03
2022-10-09T14:09:57.615Z,99749.00
2022-10-09T14:12:24.308Z,99753.06
2022-10-09T14:14:52.643Z,99744.78
2022-10-09T14:17:19.407Z,99743.03
2022-10-09T14:19:46.142Z,99732.28
2022-10-09T14:22:13.609Z,99739.00
2022-10-09T14:24:40.682Z,99726.84
2022-10-09T14:27:07.496Z,99726.16
2022-10-09T14:29:34.260Z,99707.25
2022-10-09T14:32:01.079Z,99725.88
2022-10-09T14:34:27.804Z,99726.06
2022-10-09T14:36:54.525Z,99721.81
2022-10-09T14:39:21.594Z,99729.09
2022-10-09T14:41:48.595Z,99727.91
2022-10-09T14:44:15.794Z,99712.38
2022-10-09T14:46:42.666Z,99690.69
2022-10-09T14:49:11.322Z,99707.94
2022-10-09T14:51:40.117Z,99720.81
2022-10-09T14:54:08.762Z,99715.41
2022-10-09T14:56:36.327Z,99691.72
2022-10-09T14:59:06.119Z,99667.34
2022-10-09T15:01:33.345Z,99710.50
2022-10-09T15:04:01.155Z,99714.72
2022-10-09T15:06:28.566Z,99692.38
2022-10-09T15:09:03.093Z,99711.50
2022-10-09T15:11:32.276Z,99688.81
2022-10-09T15:13:59.212Z,99706.44
2022-10-09T15:16:26.653Z,99703.97
2022-10-09T15:18:55.007Z,99699.56
2022-10-09T15:21:25.653Z,99688.38
2022-10-09T15:23:57.110Z,99692.75
2022-10-09T15:26:25.356Z,99699.81
2022-10-09T15:28:52.310Z,99688.81
2022-10-09T15:31:23.362Z,99656.03
2022-10-09T15:33:55.113Z,99699.22
2022-10-09T15:36:22.616Z,99700.22
2022-10-09T15:38:50.029Z,99693.06
2022-10-09T15:41:28.393Z,99689.59
2022-10-09T15:43:58.796Z,99697.38
2022-10-09T15:46:26.432Z,99665.75
2022-10-09T15:48:53.676Z,99693.94
2022-10-09T15:51:20.520Z,99704.75
2022-10-09T15:53:49.723Z,99701.06
2022-10-09T15:56:22.533Z,99685.31
2022-10-09T15:58:49.795Z,99704.44
2022-10-09T16:01:17.439Z,99703.19
2022-10-09T16:03:45.187Z,99688.13
2022-10-09T16:06:15.059Z,99707.00
2022-10-09T16:08:42.088Z,99704.38
2022-10-09T16:11:12.336Z,99707.00
2022-10-09T16:13:41.070Z,99700.06
2022-10-09T16:16:14.552Z,99696.97
2022-10-09T16:18:41.556Z,99702.53
2022-10-09T16:21:10.816Z,99696.84
2022-10-09T16:23:37.642Z,99694.34
2022-10-09T16:26:05.335Z,99709.84
2022-10-09T16:28:33.527Z,99670.16
2022-10-09T16:31:00.349Z,99705.56
2022-10-09T16:33:27.453Z,99705.53
2022-10-09T16:35:54.210Z,99703.47
2022-10-09T16:38:21.339Z,99703.09
2022-10-09T16:41:02.023Z,99675.00
2022-10-09T16:43:29.511Z,99695.28
2022-10-09T16:45:56.311Z,99721.50
2022-10-09T16:48:23.972Z,99689.41
2022-10-09T16:50:50.902Z,99711.91
2022-10-09T16:53:21.277Z,99696.81
2022-10-09T16:55:48.055Z,99666.97
2022-10-09T16:58:14.828Z,99717.31
2022-10-09T17:00:41.942Z,99679.03
2022-10-09T17:03:10.454Z,99710.75
2022-10-09T17:05:39.292Z,99716.97
2022-10-09T17:08:07.207Z,99709.91
2022-10-09T17:10:34.613Z,99711.03
2022-10-09T17:13:01.648Z,99700.88
2022-10-09T17:15:29.134Z,99711.94
2022-10-09T17:17:55.886Z,99707.53
2022-10-09T17:20:23.763Z,99690.97
2022-10-09T17:22:51.282Z,99694.50
2022-10-09T17:25:18.835Z,99700.88
2022-10-09T17:27:45.587Z,99704.13
2022-10-09T17:30:13.831Z,99705.28
2022-10-09T17:32:40.824Z,99705.22
2022-10-09T17:35:08.755Z,99674.50
2022-10-09T17:37:35.978Z,99700.13
2022-10-09T17:40:03.188Z,99695.78
2022-10-09T17:42:30.683Z,99699.47
2022-10-09T17:44:57.594Z,99693.81
2022-10-09T17:47:24.987Z,99687.25
2022-10-09T17:49:53.277Z,99676.94
2022-10-09T17:52:22.405Z,99686.84
2022-10-09T17:54:49.762Z,99690.63
2022-10-09T17:57:17.356Z,99694.56
2022-10-09T17:59:44.397Z,99692.19
2022-10-09T18:02:12.625Z,99686.53
2022-10-09T18:04:39.692Z,99682.69
2022-10-09T18:07:07.845Z,99686.41
2022-10-09T18:09:36.452Z,99673.25
2022-10-09T18:12:04.138Z,99691.78
2022-10-09T18:14:31.723Z,99677.81
2022-10-09T18:17:03.273Z,99663.50
2022-10-09T18:19:30.624Z,99662.25
2022-10-09T18:22:00.141Z,99673.28
2022-10-09T18:24:28.289Z,99659.81
2022-10-09T18:26:56.282Z,99663.78
2022-10-09T18:29:24.648Z,99661.19
2022-10-09T18:31:55.877Z,99661.91
2022-10-09T18:34:28.664Z,99650.69
2022-10-09T18:36:59.555Z,99636.25
2022-10-09T18:39:30.026Z,99642.34
2022-10-09T18:41:59.892Z,99657.47
2022-10-09T18:44:28.007Z,99661.41
2022-10-09T18:47:00.637Z,99650.91
2022-10-09T18:49:37.754Z,99662.25
2022-10-09T18:52:13.366Z,99657.47
2022-10-09T18:54:45.628Z,99658.31
2022-10-09T18:57:21.739Z,99640.63
2022-10-09T18:59:52.159Z,99643.31
2022-10-09T19:02:22.930Z,99615.88
2022-10-09T19:04:52.826Z,99642.19
2022-10-09T19:07:21.400Z,99653.47
2022-10-09T19:09:56.978Z,99655.44
2022-10-09T19:12:27.076Z,99641.91
2022-10-09T19:14:55.531Z,99656.78
2022-10-09T19:17:23.318Z,99618.44
2022-10-09T19:19:53.687Z,99655.50
2022-10-09T19:22:24.088Z,99619.84
2022-10-09T19:24:52.370Z,99625.06
2022-10-09T19:27:24.496Z,99619.00
2022-10-09T19:29:55.582Z,99641.78
2022-10-09T19:32:25.254Z,99642.47
2022-10-09T19:34:53.464Z,99657.63
2022-10-09T19:37:27.388Z,99646.88
2022-10-09T19:39:56.880Z,99644.91
2022-10-09T19:42:25.598Z,99642.78
2022-10-09T19:44:53.376Z,99640.25
2022-10-09T19:47:22.336Z,99609.44
2022-10-09T19:49:50.101Z,99644.63
2022-10-09T19:52:17.321Z,99610.16
2022-10-09T19:54:44.306Z,99596.72
2022-10-09T19:57:11.261Z,99642.38
2022-10-09T19:59:38.318Z,99644.97
2022-10-09T20:02:05.371Z,99638.88
2022-10-09T20:04:32.522Z,99634.06
2022-10-09T20:07:00.351Z,99634.78
2022-10-09T20:09:28.082Z,99627.00
2022-10-09T20:11:55.161Z,99598.00
2022-10-09T20:14:22.009Z,99597.84
2022-10-09T20:16:49.034Z,99603.22
2022-10-09T20:19:15.924Z,99609.31
2022-10-09T20:21:42.784Z,99599.25
2022-10-09T20:24:09.867Z,99625.28
2022-10-09T20:26:40.908Z,99617.50
2022-10-09T20:29:09.614Z,99617.91
2022-10-09T20:31:36.304Z,99618.06
2022-10-09T20:34:03.449Z,99612.97
2022-10-09T20:36:37.736Z,99600.09
2022-10-09T20:39:12.389Z,99590.91
2022-10-09T20:41:40.182Z,99613.41
2022-10-09T20:44:07.232Z,99619.06
2022-10-09T20:46:36.180Z,99614.25
2022-10-09T20:49:05.173Z,99611.13
2022-10-09T20:51:34.804Z,99604.34
2022-10-09T20:54:01.663Z,99598.84
2022-10-09T20:56:31.462Z,99600.44
2022-10-09T20:58:59.769Z,99580.06
2022-10-09T21:01:28.541Z,99599.88
2022-10-09T21:03:59.437Z,99596.59
2022-10-09T21:06:26.879Z,99579.72
2022-10-09T21:08:53.588Z,99565.91
2022-10-09T21:11:20.822Z,99582.19
2022-10-09T21:13:49.111Z,99580.47
2022-10-09T21:16:19.123Z,99560.53
2022-10-09T21:18:45.872Z,99592.50
2022-10-09T21:21:16.679Z,99588.41
2022-10-09T21:23:45.324Z,99584.41
2022-10-09T21:26:15.028Z,99575.09
2022-10-09T21:28:42.508Z,99571.28
2022-10-09T21:31:20.981Z,99577.75
2022-10-09T21:33:47.757Z,99574.09
2022-10-09T21:36:51.207Z,99584.13
2022-10-09T21:39:26.569Z,99561.19
2022-10-09T21:41:53.212Z,99583.53
2022-10-09T21:44:20.019Z,99560.66
2022-10-09T21:46:46.842Z,99567.84
2022-10-09T21:49:25.087Z,99577.31
2022-10-09T21:51:52.372Z,99575.59
2022-10-09T21:54:20.424Z,99557.66
2022-10-09T21:56:47.196Z,99539.56
2022-10-09T21:59:14.052Z,99565.44
2022-10-09T22:01:40.786Z,99540.84
2022-10-09T22:04:07.557Z,99553.28
2022-10-09T22:06:34.242Z,99507.91
2022-10-09T22:09:00.967Z,99540.69
2022-10-09T22:11:27.690Z,99546.19
2022-10-09T22:13:55.904Z,99538.81
2022-10-09T22:16:22.863Z,99546.06
2022-10-09T22:18:49.550Z,99547.63
2022-10-09T22:21:18.492Z,99546.31
2022-10-09T22:23:45.342Z,99546.28
2022-10-09T22:26:17.156Z,99545.91
2022-10-09T22:28:45.311Z,99545.75
2022-10-09T22:31:18.643Z,99542.84
2022-10-09T22:33:50.832Z,99546.25
2022-10-09T22:36:19.362Z,99552.75
2022-10-09T22:38:46.112Z,99538.00
2022-10-09T22:41:17.945Z,99530.78
2022-10-09T22:43:46.973Z,99537.00
2022-10-09T22:46:17.257Z,99538.19
2022-10-09T22:48:44.745Z,99536.75
2022-10-09T22:51:14.632Z,99508.41
2022-10-09T22:53:42.625Z,99527.47
2022-10-09T22:56:13.137Z,99503.66
2022-10-09T22:58:39.981Z,99524.22
2022-10-09T23:03:35.892Z,99532.56
2022-10-09T23:06:17.829Z,99529.50
2022-10-09T23:08:47.057Z,99523.09
2022-10-09T23:11:14.781Z,99529.22
2022-10-09T23:13:41.562Z,99522.69
2022-10-09T23:16:10.893Z,99517.34
2022-10-09T23:18:38.934Z,99517.38
2022-10-09T23:21:07.879Z,99515.97
2022-10-09T23:23:34.733Z,99509.09
2022-10-09T23:26:05.392Z,99517.94
2022-10-09T23:28:32.660Z,99505.31
2022-10-09T23:31:08.424Z,99487.34
2022-10-09T23:33:35.720Z,99519.28
2022-10-09T23:36:03.459Z,99521.84
2022-10-09T23:38:30.474Z,99506.94
2022-10-09T23:41:02.854Z,99511.25
2022-10-09T23:43:31.152Z,99510.19
2022-10-09T23:46:01.168Z,99506.28
2022-10-09T23:48:27.962Z,99500.03
2022-10-09T23:50:55.293Z,99486.97
2022-10-09T23:53:23.810Z,99470.84
2022-10-09T23:55:50.523Z,99482.72
2022-10-09T23:58:20.669Z,99489.25
